Home > Products > Valid Products > MTR

000
SAUS43 KDLH 211957
MTRGNA
METAR KGNA 211956Z AUTO 23023G34KT M01/M06 A2993 RMK AO1 PK WND
24034/1950 SLP155 T10111056





000
SAUS43 KDLH 211857
MTRGNA
METAR KGNA 211856Z AUTO 23023KT M02/M07 A2998 RMK AO1 PK WND
23031/1844 SLP169 T10221067





000
SAUS43 KDLH 211757
MTRGNA
METAR KGNA 211756Z AUTO 24023G30KT M03/M07 A3002 RMK AO1 PK WND
21031/1734 SLP186 T10281067 11028 21106 58036





000
SAUS43 KDLH 211657
MTRGNA
METAR KGNA 211656Z AUTO 23021G28KT M03/M07 A3007 RMK AO1 PK WND
22030/1613 SLP203 T10331067





000
SAUS43 KDLH 211557
MTRGNA
METAR KGNA 211556Z AUTO 22022KT M04/M08 A3010 RMK AO1 PK WND
22031/1541 SLP211 T10391078





000
SAUS43 KDLH 211557
MTRGNA
METAR KGNA 211556Z AUTO 22022KT M04/M08 A3010 RMK AO1 PK WND
22031/1541 SLP211 T10391078





000
SAUS43 KDLH 211457
MTRGNA
METAR KGNA 211456Z AUTO 29004KT M07/M11 A3013 RMK AO1 SLP222
T10671111 58015





000
SAUS43 KDLH 211357
MTRGNA
METAR KGNA 211356Z AUTO 28003KT M08/M14 A3015 RMK AO1 SLP229
T10831144





000
SAUS43 KDLH 211257
MTRGNA
METAR KGNA 211256Z AUTO 31004KT M10/M17 A3016 RMK AO1 SLP235
T11001172





000
SAUS43 KDLH 211157
MTRGNA
METAR KGNA 211156Z AUTO 29005KT M11/M16 A3018 RMK AO1 SLP240
T11061161 11106 21167 58007





000
SAUS43 KDLH 211057
MTRGNA
METAR KGNA 211056Z AUTO 29005KT M13/M19 A3019 RMK AO1 SLP248
T11281189





000
SAUS43 KDLH 210957
MTRGNA
METAR KGNA 210956Z AUTO 30005KT M14/M18 A3018 RMK AO1 SLP244
T11391183





000
SAUS43 KDLH 210857
MTRGNA
METAR KGNA 210856Z AUTO 31004KT M14/M18 A3020 RMK AO1 SLP249
T11391178 50004





000
SAUS43 KDLH 210757
MTRGNA
METAR KGNA 210756Z AUTO 32005KT M16/M19 A3021 RMK AO1 SLP255
T11611194





000
SAUS43 KDLH 210657
MTRGNA
METAR KGNA 210656Z AUTO 30003KT M16/M19 A3019 RMK AO1 SLP248
T11611194





000
SAUS43 KDLH 210557
MTRGNA
METAR KGNA 210556Z AUTO 28005KT M15/M18 A3018 RMK AO1 SLP246
T11501183 11094 21167 410941167 53021





000
SAUS43 KDLH 210457
MTRGNA
METAR KGNA 210456Z AUTO 31003KT M16/M18 A3015 RMK AO1 SLP236
T11561183





000
SAUS43 KDLH 210357
MTRGNA
METAR KGNA 210356Z AUTO 00000KT M11/M16 A3015 RMK AO1 SLP232
T11111156





000
SAUS43 KDLH 210257
MTRGNA
METAR KGNA 210256Z AUTO 26008G14KT M12/M16 A3012 RMK AO1 PK WND
34030/0157 SLP223 T11171161 53021





000
SAUS43 KDLH 210157
MTRGNA
METAR KGNA 210156Z AUTO 33016G28KT M12/M17 A3006 RMK AO1 PK WND
33035/0111 SLP204 T11171172





000
SAUS43 KDLH 210057
MTRGNA
METAR KGNA 210056Z AUTO 32013G32KT M12/M18 A3006 RMK AO1 PK WND
33032/0050 SLP203 T11171178





000
SAUS43 KDLH 202357
MTRGNA
METAR KGNA 202356Z AUTO 32012G29KT M12/M18 A3006 RMK AO1 PK WND
33029/2354 SLP201 T11221178 11106 21122 51014





000
SAUS43 KDLH 202257
MTRGNA
METAR KGNA 202256Z AUTO 33010G20KT M12/M18 A3005 RMK AO1 SLP199
T11221183





000
SAUS43 KDLH 202157
MTRGNA
METAR KGNA 202156Z AUTO VRB04KT M12/M19 A3004 RMK AO1 SLP194
T11221194





000
SAUS43 KDLH 202057
MTRGNA
METAR KGNA 202056Z AUTO VRB05KT M12/M20 A3002 RMK AO1 SLP186
T11171200 53013





000
SAUS43 KDLH 201957
MTRGNA
METAR KGNA 201956Z AUTO 30009G15KT M11/M21 A3000 RMK AO1 SLP179
T11111206





000
SAUS43 KDLH 201857
MTRGNA
METAR KGNA 201856Z AUTO 29008G15KT 240V320 M11/M21 A2999 RMK AO1
SLP175 T11111206





000
SAUS43 KDLH 201757
MTRGNA
METAR KGNA 201756Z AUTO VRB05KT M12/M21 A2998 RMK AO1 SLP174
T11171206 11117 21161 51021





000
SAUS43 KDLH 201657
MTRGNA
METAR KGNA 201656Z AUTO VRB04KT M13/M22 A2997 RMK AO1 SLP171
T11331217





000
SAUS43 KDLH 201557
MTRGNA
METAR KGNA 201556Z AUTO VRB03G16KT M13/M21 A2995 RMK AO1 SLP165
T11331211





000
SAUS43 KDLH 201457
MTRGNA
METAR KGNA 201456Z AUTO 32004KT M13/M19 A2991 RMK AO1 SLP151
T11281189 51024





000
SAUS43 KDLH 201357
MTRGNA
METAR KGNA 201356Z AUTO 00000KT M15/M18 A2990 RMK AO1 SLP147
T11501183





000
SAUS43 KDLH 201257
MTRGNA
METAR KGNA 201256Z AUTO 28003KT M16/M19 A2988 RMK AO1 SLP140
T11611189





000
SAUS43 KDLH 201157
MTRGNA
METAR KGNA 201156Z AUTO 28004KT M14/M18 A2984 RMK AO1 SLP126 70001
T11391183 11106 21144 52014





000
SAUS43 KDLH 201057
MTRGNA
METAR KGNA 201056Z AUTO VRB06KT M13/M17 A2983 RMK AO1 SLP121
T11281172





000
SAUS43 KDLH 200957
MTRGNA
METAR KGNA 200956Z AUTO 26005KT M12/M16 A2981 RMK AO1 SLP114
T11221161





000
SAUS43 KDLH 200957
MTRGNA
METAR KGNA 200956Z AUTO 26005KT M12/M16 A2981 RMK AO1 SLP114
T11221161





000
SAUS43 KDLH 200857
MTRGNA
METAR KGNA 200856Z AUTO VRB04KT M12/M17 A2980 RMK AO1 SLP110
T11171167 53009





000
SAUS43 KDLH 200757
MTRGNA
METAR KGNA 200756Z AUTO 26003KT M11/M15 A2979 RMK AO1 SLP107
T11111150





000
SAUS43 KDLH 200657
MTRGNA
METAR KGNA 200656Z AUTO VRB03KT M12/M15 A2977 RMK AO1 SLP099
T11171150





000
SAUS43 KDLH 200557
MTRGNA
METAR KGNA 200556Z AUTO 27005KT M13/M16 A2977 RMK AO1 SLP101
T11281161 11072 21128 410441128 53011





000
SAUS43 KDLH 200457
MTRGNA
METAR KGNA 200456Z AUTO 26005KT M12/M16 A2976 RMK AO1 SLP097
T11171156





000
SAUS43 KDLH 200357
MTRGNA
METAR KGNA 200356Z AUTO 26005KT M11/M15 A2975 RMK AO1 SLP092
T11061150





000
SAUS43 KDLH 200357
MTRGNA
METAR KGNA 200356Z AUTO 26005KT M11/M15 A2975 RMK AO1 SLP092
T11061150





000
SAUS43 KDLH 200257
MTRGNA
METAR KGNA 200256Z AUTO 26004KT M10/M16 A2974 RMK AO1 SLP089
T11001156 51016





000
SAUS43 KDLH 200157
MTRGNA
METAR KGNA 200156Z AUTO 25004KT M09/M16 A2973 RMK AO1 SLP085
T10891156





000
SAUS43 KDLH 200057
MTRGNA
METAR KGNA 200056Z AUTO VRB05KT M08/M16 A2971 RMK AO1 SLP078
T10831156





000
SAUS43 KDLH 192258
MTRGNA
METAR KGNA 192256Z AUTO VRB04KT M07/M14 A2968 RMK AO1 SLP066
T10721139





000
SAUS43 KDLH 192158
MTRGNA
METAR KGNA 192156Z AUTO VRB04G16KT M06/M14 A2965 RMK AO1 SLP058
T10561139





000
SAUS43 KDLH 192058
MTRGNA
METAR KGNA 192056Z AUTO 32007KT 270V360 M05/M14 A2963 RMK AO1 SLP049
T10501139 53004





000
SAUS43 KDLH 191958
MTRGNA
METAR KGNA 191956Z AUTO VRB06KT M05/M12 A2961 RMK AO1 SLP043
T10501122





000
SAUS43 KDLH 191858
MTRGNA
METAR KGNA 191856Z AUTO VRB06KT M04/M12 A2961 RMK AO1 SLP042
T10441122





000
SAUS43 KDLH 191758
MTRGNA
METAR KGNA 191756Z AUTO 29009G15KT M04/M12 A2962 RMK AO1 SLP046
60001 T10441122 11044 21089 58011





000
SAUS43 KDLH 191658
MTRGNA
METAR KGNA 191656Z AUTO 34005KT M05/M13 A2963 RMK AO1 SLP052
T10501128





000
SAUS43 KDLH 191558
MTRGNA
METAR KGNA 191556Z AUTO VRB03KT M07/M12 A2964 RMK AO1 SLP056
T10721122





000
SAUS43 KDLH 191457
MTRGNA
METAR KGNA 191456Z AUTO VRB06KT M08/M12 A2965 RMK AO1 SLP059 P0001
60001 T10781122 56003





000
SAUS43 KDLH 191357
MTRGNA
METAR KGNA 191356Z AUTO 34008KT M08/M13 A2965 RMK AO1 SLP059
T10831133





000
SAUS43 KDLH 191257
MTRGNA
METAR KGNA 191256Z AUTO 33006KT M09/M14 A2965 RMK AO1 SLP061
T10891139





000
SAUS43 KDLH 191157
MTRGNA
METAR KGNA 191156Z AUTO 33008KT M09/M13 A2966 RMK AO1 SLP062
T10891133 11078 21100 56013





000
SAUS43 KDLH 191057
MTRGNA
METAR KGNA 191056Z AUTO VRB04KT M08/M13 A2967 RMK AO1 SLP065
T10831128





000
SAUS43 KDLH 190957
MTRGNA
METAR KGNA 190956Z AUTO VRB06KT M08/M13 A2968 RMK AO1 SLP067
T10831133





000
SAUS43 KDLH 190957
MTRGNA
METAR KGNA 190956Z AUTO VRB06KT M08/M13 A2968 RMK AO1 SLP067
T10831133





000
SAUS43 KDLH 190857
MTRGNA
METAR KGNA 190856Z AUTO VRB03KT M09/M14 A2970 RMK AO1 SLP074
T10891144 56021





000
SAUS43 KDLH 190757
MTRGNA
METAR KGNA 190756Z AUTO VRB05KT M09/M14 A2972 RMK AO1 SLP080
T10891144





000
SAUS43 KDLH 190657
MTRGNA
METAR KGNA 190656Z AUTO 25006KT M08/M14 A2973 RMK AO1 SLP086
T10831139





000
SAUS43 KDLH 190557
MTRGNA
METAR KGNA 190556Z AUTO 28005KT M10/M15 A2976 RMK AO1 SLP097
T11001150 11100 21117 410671122 58015





000
SAUS43 KDLH 190458
MTRGNA
METAR KGNA 190456Z AUTO 30003KT M11/M16 A2978 RMK AO1 SLP103
T11111161





000
SAUS43 KDLH 190357
MTRGNA
METAR KGNA 190356Z AUTO 30004KT M12/M17 A2980 RMK AO1 SLP111
T11171167





000
SAUS43 KDLH 190257
MTRGNA
METAR KGNA 190256Z AUTO 29005KT M12/M17 A2981 RMK AO1 SLP115
T11171167 58006





000
SAUS43 KDLH 190157
MTRGNA
METAR KGNA 190156Z AUTO 28005KT M11/M17 A2982 RMK AO1 SLP119
T11111167





000
SAUS43 KDLH 190057
MTRGNA
METAR KGNA 190056Z AUTO 29004KT M12/M17 A2982 RMK AO1 SLP120
T11171167





000
SAUS43 KDLH 182357
MTRGNA
METAR KGNA 182356Z AUTO 31003KT M12/M17 A2982 RMK AO1 SLP121
T11171167 11067 21117 50003





000
SAUS43 KDLH 182257
MTRGNA
METAR KGNA 182256Z AUTO 28005KT M10/M17 A2982 RMK AO1 SLP120
T11001172





000
SAUS43 KDLH 182157
MTRGNA
METAR KGNA 182156Z AUTO VRB06KT M09/M16 A2982 RMK AO1 SLP117
T10891161





000
SAUS43 KDLH 182157
MTRGNA
METAR KGNA 182156Z AUTO VRB06KT M09/M16 A2982 RMK AO1 SLP117
T10891161





000
SAUS43 KDLH 182057
MTRGNA
METAR KGNA 182056Z AUTO 28007G15KT M07/M16 A2981 RMK AO1 SLP114
T10721156 53002





    US Dept of Commerce
    National Oceanic and Atmospheric Administration
    National Weather Service
    1325 East West Highway
    Silver Spring, MD 20910
    Page Author: NWS Internet Services Team
Disclaimer
Information Quality
Credits
Glossary
Privacy Policy
Freedom of Information Act (FOIA)
About Us
Career Opportunities